createdAt,value
2019-05-03T00:00:22.303Z,21.53
2019-05-03T00:03:01.723Z,21.00
2019-05-03T00:05:33.734Z,21.53
2019-05-03T00:08:07.159Z,22.83
2019-05-03T00:10:39.720Z,20.93
2019-05-03T00:13:08.570Z,19.20
2019-05-03T00:15:56.668Z,20.97
2019-05-03T00:18:26.744Z,22.97
2019-05-03T00:20:55.584Z,26.53
2019-05-03T00:23:27.476Z,20.60
2019-05-03T00:26:02.494Z,24.63
2019-05-03T00:28:34.724Z,22.00
2019-05-03T00:31:05.751Z,25.43
2019-05-03T00:36:52.724Z,28.77
2019-05-03T00:40:02.975Z,25.10
2019-05-03T00:42:34.138Z,23.47
2019-05-03T00:45:04.200Z,25.40
2019-05-03T00:47:33.015Z,26.27
2019-05-03T00:50:03.259Z,23.77
2019-05-03T00:52:37.387Z,21.13
2019-05-03T00:55:16.112Z,27.77
2019-05-03T00:57:41.666Z,26.43
2019-05-03T01:00:21.685Z,23.43
2019-05-03T01:02:56.293Z,26.67
2019-05-03T01:05:26.443Z,26.33
2019-05-03T01:07:57.627Z,24.67
2019-05-03T01:10:33.025Z,22.70
2019-05-03T01:13:04.605Z,26.67
2019-05-03T01:15:57.399Z,24.97
2019-05-03T01:18:25.318Z,29.10
2019-05-03T01:20:59.843Z,29.63
2019-05-03T01:23:28.684Z,30.00
2019-05-03T01:25:57.684Z,30.43
2019-05-03T01:28:26.615Z,27.07
2019-05-03T01:30:55.480Z,25.57
2019-05-03T01:33:24.615Z,31.63
2019-05-03T01:35:53.479Z,30.20
2019-05-03T01:38:22.705Z,30.17
2019-05-03T01:40:52.217Z,29.27
2019-05-03T01:43:22.193Z,25.93
2019-05-03T01:46:03.784Z,28.33
2019-05-03T01:48:47.339Z,30.30
2019-05-03T01:51:32.700Z,29.93
2019-05-03T01:54:01.762Z,29.53
2019-05-03T01:56:32.239Z,30.27
2019-05-03T01:59:01.887Z,28.80
2019-05-03T02:01:51.600Z,30.90
2019-05-03T02:04:32.180Z,30.43
2019-05-03T02:07:02.304Z,28.03
2019-05-03T02:09:32.221Z,32.53
2019-05-03T02:12:02.153Z,27.00
2019-05-03T02:14:31.715Z,32.13
2019-05-03T02:17:01.823Z,31.03
2019-05-03T02:19:32.531Z,31.50
2019-05-03T02:22:02.877Z,31.77
2019-05-03T02:24:32.770Z,33.33
2019-05-03T02:27:02.243Z,29.13
2019-05-03T02:29:32.543Z,30.07
2019-05-03T02:32:03.216Z,28.93
2019-05-03T02:34:34.500Z,32.67
2019-05-03T02:37:06.400Z,32.93
2019-05-03T02:39:38.305Z,31.10
2019-05-03T02:42:11.409Z,31.07
2019-05-03T02:44:38.244Z,32.47
2019-05-03T02:47:26.667Z,30.90
2019-05-03T02:50:02.577Z,32.93
2019-05-03T02:52:37.126Z,30.23
2019-05-03T02:55:10.590Z,33.40
2019-05-03T02:57:42.564Z,32.47
2019-05-03T03:00:12.411Z,32.40
2019-05-03T03:02:58.725Z,30.53
2019-05-03T03:05:27.568Z,32.63
2019-05-03T03:07:57.230Z,31.20
2019-05-03T03:10:27.157Z,31.80
2019-05-03T03:12:59.518Z,29.70
2019-05-03T03:15:29.963Z,31.90
2019-05-03T03:17:59.889Z,32.90
2019-05-03T03:20:32.599Z,29.53
2019-05-03T03:23:02.918Z,28.83
2019-05-03T03:25:36.192Z,31.63
2019-05-03T03:28:06.602Z,30.47
2019-05-03T03:30:57.463Z,29.47
2019-05-03T03:33:28.052Z,30.63
2019-05-03T03:36:01.335Z,32.40
2019-05-03T03:38:26.387Z,31.00
2019-05-03T03:40:58.949Z,26.57
2019-05-03T03:43:28.161Z,31.70
2019-05-03T03:45:57.259Z,28.37
2019-05-03T03:48:26.757Z,29.00
2019-05-03T03:50:58.262Z,29.27
2019-05-03T03:53:28.528Z,32.80
2019-05-03T03:55:58.148Z,31.90
2019-05-03T03:58:28.011Z,30.20
2019-05-03T04:00:59.863Z,30.10
2019-05-03T04:03:28.724Z,32.07
2019-05-03T04:05:57.599Z,30.10
2019-05-03T04:08:26.464Z,31.10
2019-05-03T04:10:59.408Z,27.90
2019-05-03T04:13:28.312Z,28.40
2019-05-03T04:16:21.104Z,28.93
2019-05-03T04:19:09.056Z,29.17
2019-05-03T04:21:40.398Z,29.50
2019-05-03T04:24:09.459Z,30.23
2019-05-03T04:26:38.619Z,31.83
2019-05-03T04:29:07.519Z,29.17
2019-05-03T04:31:36.933Z,28.57
2019-05-03T04:34:05.793Z,29.17
2019-05-03T04:36:35.774Z,28.03
2019-05-03T04:39:05.694Z,28.10
2019-05-03T04:41:35.694Z,26.00
2019-05-03T04:44:06.286Z,27.80
2019-05-03T04:46:35.951Z,30.40
2019-05-03T04:49:05.767Z,25.57
2019-05-03T04:51:35.124Z,25.47
2019-05-03T04:54:25.298Z,25.70
2019-05-03T04:56:56.101Z,21.07
2019-05-03T04:59:25.444Z,20.07
2019-05-03T05:01:55.987Z,16.53
2019-05-03T05:04:25.413Z,18.70
2019-05-03T05:06:55.578Z,12.10
2019-05-03T05:09:25.919Z,13.20
2019-05-03T05:12:06.021Z,15.07
2019-05-03T05:14:35.399Z,10.13
2019-05-03T05:17:06.119Z,10.87
2019-05-03T05:19:44.605Z,11.40
2019-05-03T05:22:15.505Z,10.30
2019-05-03T05:24:44.958Z,14.43
2019-05-03T05:27:25.772Z,11.47
2019-05-03T05:29:55.415Z,10.90
2019-05-03T05:32:24.789Z,9.93
2019-05-03T05:34:54.960Z,10.90
2019-05-03T05:39:25.226Z,12.57
2019-05-03T05:42:05.443Z,10.87
2019-05-03T05:44:38.531Z,10.57
2019-05-03T05:47:26.442Z,10.53
2019-05-03T05:50:00.964Z,11.43
2019-05-03T05:52:29.964Z,10.93
2019-05-03T05:55:11.704Z,11.50
2019-05-03T05:58:04.733Z,9.73
2019-05-03T06:00:37.213Z,6.70
2019-05-03T06:03:09.051Z,7.67
2019-05-03T06:05:38.246Z,3.70
2019-05-03T06:08:15.738Z,3.70
2019-05-03T06:10:55.359Z,3.93
2019-05-03T06:13:34.333Z,4.10
2019-05-03T06:16:10.564Z,5.10
2019-05-03T06:19:00.236Z,3.80
2019-05-03T06:21:37.824Z,3.73
2019-05-03T06:24:17.811Z,2.63
2019-05-03T06:26:54.576Z,3.60
2019-05-03T06:32:26.899Z,5.10
2019-05-03T06:34:55.740Z,3.70
2019-05-03T06:37:27.577Z,6.70
2019-05-03T06:39:56.436Z,4.37
2019-05-03T06:42:25.557Z,6.30
2019-05-03T06:44:54.715Z,5.20
2019-05-03T06:47:25.296Z,3.87
2019-05-03T06:50:14.545Z,5.20
2019-05-03T06:52:44.552Z,5.53
2019-05-03T06:55:14.539Z,4.40
2019-05-03T06:57:49.368Z,5.23
2019-05-03T07:00:36.388Z,6.20
2019-05-03T07:03:11.507Z,4.10
2019-05-03T07:05:59.466Z,5.30
2019-05-03T07:08:47.377Z,5.27
2019-05-03T07:11:16.254Z,3.67
2019-05-03T07:13:45.197Z,5.43
2019-05-03T07:16:14.951Z,4.57
2019-05-03T07:18:45.434Z,2.87
2019-05-03T07:21:15.238Z,3.53
2019-05-03T07:23:45.099Z,4.30
2019-05-03T07:26:15.063Z,5.67
2019-05-03T07:28:49.404Z,2.30
2019-05-03T07:31:15.308Z,3.17
2019-05-03T07:33:44.688Z,3.90
2019-05-03T07:36:15.283Z,3.17
2019-05-03T07:38:45.392Z,6.07
2019-05-03T07:41:14.873Z,3.53
2019-05-03T07:43:45.070Z,5.80
2019-05-03T07:46:16.369Z,3.77
2019-05-03T07:48:45.742Z,5.43
2019-05-03T07:51:17.789Z,5.63
2019-05-03T07:53:46.630Z,5.83
2019-05-03T07:56:16.488Z,5.83
2019-05-03T07:58:59.886Z,4.43
2019-05-03T08:01:30.513Z,7.20
2019-05-03T08:04:00.419Z,4.60
2019-05-03T08:06:29.449Z,7.03
2019-05-03T08:08:58.237Z,5.23
2019-05-03T08:11:27.027Z,5.93
2019-05-03T08:13:58.020Z,5.37
2019-05-03T08:16:28.233Z,6.53
2019-05-03T08:18:58.053Z,5.90
2019-05-03T08:21:28.775Z,6.47
2019-05-03T08:23:59.030Z,9.47
2019-05-03T08:26:28.914Z,7.63
2019-05-03T08:28:58.926Z,8.33
2019-05-03T08:31:47.477Z,8.33
2019-05-03T08:34:36.437Z,5.23
2019-05-03T08:37:11.884Z,4.10
2019-05-03T08:39:44.582Z,4.17
2019-05-03T08:42:19.503Z,6.17
2019-05-03T08:44:50.020Z,8.13
2019-05-03T08:47:20.459Z,5.33
2019-05-03T08:49:51.283Z,6.63
2019-05-03T08:52:21.300Z,7.07
2019-05-03T08:54:51.121Z,6.97
2019-05-03T08:57:21.436Z,7.80
2019-05-03T08:59:56.676Z,6.57
2019-05-03T09:02:31.299Z,5.77
2019-05-03T09:05:01.432Z,7.30
2019-05-03T09:07:32.356Z,4.87
2019-05-03T09:10:12.522Z,7.43
2019-05-03T09:13:06.146Z,9.60
2019-05-03T09:15:40.824Z,6.30
2019-05-03T09:18:17.613Z,5.30
2019-05-03T09:20:48.231Z,4.63
2019-05-03T09:23:23.104Z,6.27
2019-05-03T09:25:52.069Z,5.37
2019-05-03T09:28:25.414Z,6.60
2019-05-03T09:30:56.891Z,5.93
2019-05-03T09:33:26.997Z,3.70
2019-05-03T09:35:57.031Z,5.80
2019-05-03T09:38:27.344Z,6.20
2019-05-03T09:40:58.293Z,4.53
2019-05-03T09:43:28.600Z,6.10
2019-05-03T09:45:58.614Z,6.97
2019-05-03T09:48:28.651Z,4.90
2019-05-03T09:50:58.551Z,7.30
2019-05-03T09:53:31.230Z,7.10
2019-05-03T09:56:01.139Z,5.27
2019-05-03T09:58:31.265Z,6.00
2019-05-03T10:01:01.191Z,7.57
2019-05-03T10:03:31.290Z,4.23
2019-05-03T10:06:01.521Z,5.87
2019-05-03T10:08:31.630Z,5.87
2019-05-03T10:11:20.511Z,6.47
2019-05-03T10:13:50.302Z,3.97
2019-05-03T10:16:22.066Z,8.03
2019-05-03T10:18:51.866Z,3.77
2019-05-03T10:21:25.701Z,6.83
2019-05-03T10:23:57.126Z,5.70
2019-05-03T10:26:28.290Z,3.70
2019-05-03T10:28:58.611Z,9.53
2019-05-03T10:31:35.523Z,4.70
2019-05-03T10:34:06.039Z,3.23
2019-05-03T10:36:36.220Z,3.90
2019-05-03T10:39:07.258Z,4.07
2019-05-03T10:41:37.383Z,4.80
2019-05-03T10:44:07.501Z,4.50
2019-05-03T10:46:37.631Z,3.00
2019-05-03T10:49:08.171Z,6.03
2019-05-03T10:51:45.193Z,6.77
2019-05-03T10:54:15.855Z,6.27
2019-05-03T10:56:52.124Z,3.00
2019-05-03T10:59:24.845Z,3.47
2019-05-03T11:02:13.571Z,3.87
2019-05-03T11:04:46.020Z,4.47
2019-05-03T11:07:15.038Z,6.07
2019-05-03T11:09:49.758Z,4.37
2019-05-03T11:12:17.090Z,2.87
2019-05-03T11:14:47.141Z,5.50
2019-05-03T11:17:17.238Z,7.47
2019-05-03T11:19:47.459Z,5.63
2019-05-03T11:22:17.273Z,3.77
2019-05-03T11:24:47.606Z,3.50
2019-05-03T11:27:22.321Z,5.53
2019-05-03T11:29:52.252Z,6.47
2019-05-03T11:32:31.995Z,4.90
2019-05-03T11:35:11.778Z,5.33
2019-05-03T11:38:00.483Z,5.00
2019-05-03T11:40:30.494Z,3.40
2019-05-03T11:43:01.229Z,6.43
2019-05-03T11:45:31.037Z,4.10
2019-05-03T11:48:01.055Z,3.97
2019-05-03T11:50:30.879Z,4.47
2019-05-03T11:53:00.577Z,5.47
2019-05-03T11:55:30.711Z,8.60
2019-05-03T11:58:02.271Z,5.87
2019-05-03T12:00:35.880Z,7.37
2019-05-03T12:03:11.600Z,5.07
2019-05-03T12:05:43.256Z,4.80
2019-05-03T12:08:14.737Z,7.23
2019-05-03T12:10:55.444Z,4.40
2019-05-03T12:13:29.291Z,5.07
2019-05-03T12:16:00.141Z,4.73
2019-05-03T12:18:44.574Z,4.77
2019-05-03T12:21:03.111Z,5.70
2019-05-03T12:23:35.649Z,6.53
2019-05-03T12:26:10.930Z,4.90
2019-05-03T12:28:36.241Z,5.13
2019-05-03T12:31:06.459Z,5.30
2019-05-03T12:33:36.580Z,7.73
2019-05-03T12:36:06.511Z,5.03
2019-05-03T12:38:36.632Z,7.30
2019-05-03T12:41:06.627Z,4.57
2019-05-03T12:43:36.232Z,6.57
2019-05-03T12:46:06.253Z,4.20
2019-05-03T12:48:35.948Z,4.83
2019-05-03T12:51:06.933Z,5.73
2019-05-03T12:53:37.016Z,6.53
2019-05-03T12:56:11.439Z,5.83
2019-05-03T12:58:57.227Z,3.37
2019-05-03T13:01:42.219Z,3.60
2019-05-03T13:04:15.402Z,4.47
2019-05-03T13:06:48.783Z,5.60
2019-05-03T13:09:18.811Z,3.33
2019-05-03T13:11:55.536Z,7.40
2019-05-03T13:14:24.842Z,5.93
2019-05-03T13:16:55.226Z,5.13
2019-05-03T13:19:25.823Z,5.50
2019-05-03T13:21:55.702Z,5.63
2019-05-03T13:24:26.074Z,3.73
2019-05-03T13:26:56.500Z,5.10
2019-05-03T13:29:26.504Z,4.80
2019-05-03T13:32:01.879Z,5.93
2019-05-03T13:34:27.661Z,6.33
2019-05-03T13:36:57.493Z,7.17
2019-05-03T13:39:27.495Z,6.27
2019-05-03T13:41:57.408Z,8.63
2019-05-03T13:44:27.628Z,7.77
2019-05-03T13:46:58.791Z,5.07
2019-05-03T13:49:30.219Z,6.80
2019-05-03T13:52:00.441Z,6.33
2019-05-03T13:54:30.455Z,8.90
2019-05-03T13:57:00.475Z,6.60
2019-05-03T13:59:30.999Z,6.13
2019-05-03T14:02:12.552Z,6.43
2019-05-03T14:04:35.797Z,7.17
2019-05-03T14:07:04.673Z,7.23
2019-05-03T14:09:38.035Z,5.70
2019-05-03T14:12:12.551Z,6.50
2019-05-03T14:15:05.434Z,7.13
2019-05-03T14:17:38.493Z,5.23
2019-05-03T14:20:17.432Z,7.57
2019-05-03T14:22:49.175Z,4.93
2019-05-03T14:25:19.500Z,7.07
2019-05-03T14:27:54.823Z,5.10
2019-05-03T14:30:29.475Z,5.67
2019-05-03T14:33:05.065Z,5.93
2019-05-03T14:35:36.461Z,6.33
2019-05-03T14:38:10.296Z,5.37
2019-05-03T14:40:44.972Z,9.77
2019-05-03T14:43:19.533Z,5.03
2019-05-03T14:45:55.071Z,5.97
2019-05-03T14:48:28.868Z,6.77
2019-05-03T14:51:01.552Z,6.33
2019-05-03T14:53:34.784Z,5.70
2019-05-03T14:56:25.299Z,7.03
2019-05-03T14:59:16.571Z,5.23
2019-05-03T15:01:59.468Z,6.00
2019-05-03T15:04:31.635Z,5.63
2019-05-03T15:07:07.696Z,7.70
2019-05-03T15:09:45.777Z,7.17
2019-05-03T15:12:21.036Z,6.03
2019-05-03T15:14:55.885Z,5.67
2019-05-03T15:17:26.188Z,5.30
2019-05-03T15:19:57.848Z,5.87
2019-05-03T15:22:35.750Z,4.20
2019-05-03T15:25:12.131Z,5.53
2019-05-03T15:27:55.268Z,5.90
2019-05-03T15:30:27.907Z,6.63
2019-05-03T15:33:04.965Z,5.97
2019-05-03T15:35:37.880Z,5.77
2019-05-03T15:38:14.549Z,3.80
2019-05-03T15:40:50.414Z,6.37
2019-05-03T15:43:31.812Z,5.77
2019-05-03T15:46:25.285Z,5.50
2019-05-03T15:48:59.592Z,6.53
2019-05-03T15:51:31.242Z,7.30
2019-05-03T16:01:10.615Z,4.17
2019-05-03T16:03:41.137Z,4.90
2019-05-03T16:06:15.559Z,7.43
2019-05-03T16:08:47.009Z,9.80
2019-05-03T16:35:26.498Z,9.00
2019-05-03T16:37:57.539Z,8.43
2019-05-03T16:50:57.543Z,6.70
2019-05-03T17:02:50.435Z,7.67
2019-05-03T17:05:41.549Z,5.97
2019-05-03T17:11:26.022Z,7.07
2019-05-03T17:13:57.642Z,7.23
2019-05-03T17:16:28.202Z,6.63
2019-05-03T17:18:58.735Z,7.67
2019-05-03T17:21:28.854Z,6.30
2019-05-03T17:23:58.566Z,6.53
2019-05-03T17:26:32.684Z,12.93
2019-05-03T17:29:08.831Z,6.93
2019-05-03T17:31:38.869Z,5.17
2019-05-03T17:34:09.175Z,5.93
2019-05-03T17:36:39.599Z,9.53
2019-05-03T17:39:15.761Z,7.17
2019-05-03T17:42:10.967Z,6.50
2019-05-03T17:44:48.891Z,5.67
2019-05-03T17:47:20.838Z,6.67
2019-05-03T17:49:59.052Z,7.03
2019-05-03T17:52:48.914Z,7.27
2019-05-03T17:55:45.666Z,10.50
2019-05-03T17:58:26.846Z,8.80
2019-05-03T18:01:16.530Z,12.20
2019-05-03T18:04:08.992Z,12.17
2019-05-03T18:06:40.511Z,14.47
2019-05-03T18:09:21.703Z,16.17
2019-05-03T18:11:58.465Z,12.30
2019-05-03T18:14:30.937Z,15.10
2019-05-03T18:17:01.879Z,11.43
2019-05-03T18:19:32.007Z,9.37
2019-05-03T18:22:01.910Z,10.73
2019-05-03T18:24:38.173Z,7.10
2019-05-03T18:30:23.718Z,11.53
2019-05-03T18:33:27.586Z,10.07
2019-05-03T18:42:34.863Z,12.80
2019-05-03T18:45:12.637Z,9.83
2019-05-03T18:47:48.901Z,9.30
2019-05-03T18:50:24.223Z,10.03
2019-05-03T18:52:58.843Z,7.60
2019-05-03T19:19:35.233Z,9.27
2019-05-03T19:22:17.566Z,9.60
2019-05-03T19:24:49.529Z,10.23
2019-05-03T19:27:40.332Z,12.30
2019-05-03T19:30:10.451Z,10.77
2019-05-03T19:32:40.980Z,11.83
2019-05-03T19:35:11.821Z,11.57
2019-05-03T19:37:42.243Z,13.57
2019-05-03T19:40:12.562Z,15.23
2019-05-03T19:42:44.753Z,16.03
2019-05-03T19:45:15.327Z,9.40
2019-05-03T19:47:45.811Z,13.73
2019-05-03T19:50:16.525Z,11.07
2019-05-03T19:53:05.354Z,12.37
2019-05-03T19:55:36.450Z,13.07
2019-05-03T19:58:26.529Z,12.53
2019-05-03T20:01:17.105Z,13.13
2019-05-03T20:03:57.490Z,9.60
2019-05-03T20:06:38.876Z,12.63
2019-05-03T20:09:15.110Z,12.97
2019-05-03T20:11:46.591Z,15.13
2019-05-03T20:14:17.420Z,11.20
2019-05-03T20:16:47.631Z,15.40
2019-05-03T20:19:21.221Z,13.37
2019-05-03T20:21:50.525Z,16.13
2019-05-03T20:24:21.048Z,14.77
2019-05-03T20:26:51.699Z,16.33
2019-05-03T20:29:22.513Z,16.27
2019-05-03T20:31:55.030Z,15.10
2019-05-03T20:34:25.230Z,11.33
2019-05-03T20:36:56.360Z,13.67
2019-05-03T20:39:31.510Z,10.57
2019-05-03T20:42:02.241Z,16.80
2019-05-03T20:44:46.366Z,14.60
2019-05-03T20:47:21.924Z,11.30
2019-05-03T20:50:11.182Z,10.13
2019-05-03T20:52:41.619Z,14.90
2019-05-03T20:55:12.048Z,15.47
2019-05-03T20:57:44.411Z,13.40
2019-05-03T21:00:18.644Z,14.40
2019-05-03T21:02:53.356Z,13.70
2019-05-03T21:05:29.738Z,15.73
2019-05-03T21:07:54.845Z,11.27
2019-05-03T21:10:25.241Z,11.00
2019-05-03T21:12:55.869Z,14.33
2019-05-03T21:15:35.851Z,14.70
2019-05-03T21:18:15.091Z,15.10
2019-05-03T21:20:57.670Z,12.30
2019-05-03T21:23:28.617Z,13.33
2019-05-03T21:26:12.452Z,17.50
2019-05-03T21:28:36.651Z,12.80
2019-05-03T21:31:07.182Z,18.23
2019-05-03T21:33:38.299Z,10.37
2019-05-03T21:36:09.649Z,11.70
2019-05-03T21:38:40.991Z,13.93
2019-05-03T21:41:11.876Z,9.30
2019-05-03T21:43:45.086Z,15.00
2019-05-03T21:46:25.528Z,12.70
2019-05-03T21:49:04.487Z,10.50
2019-05-03T21:51:34.843Z,12.17
2019-05-03T21:54:06.911Z,10.97
2019-05-03T21:56:37.138Z,18.20
2019-05-03T21:59:07.233Z,16.37
2019-05-03T22:01:41.555Z,16.67
2019-05-03T22:04:12.889Z,17.03
2019-05-03T22:07:05.210Z,16.80
2019-05-03T22:09:37.743Z,17.13
2019-05-03T22:12:08.257Z,19.07
2019-05-03T22:14:57.300Z,14.27
2019-05-03T22:17:46.281Z,13.20
2019-05-03T22:20:35.221Z,16.40
2019-05-03T22:23:12.547Z,24.20
2019-05-03T22:25:43.667Z,16.27
2019-05-03T22:28:15.581Z,13.97
2019-05-03T22:30:46.354Z,12.27
2019-05-03T22:33:16.464Z,11.47
2019-05-03T22:35:46.589Z,14.47
2019-05-03T22:38:17.015Z,13.10
2019-05-03T22:40:48.271Z,12.23
2019-05-03T22:43:18.811Z,16.17
2019-05-03T22:45:49.229Z,15.13
2019-05-03T22:48:19.535Z,14.00
2019-05-03T22:50:49.454Z,14.70
2019-05-03T22:53:20.709Z,16.40
2019-05-03T22:55:51.649Z,17.23
2019-05-03T22:58:21.657Z,12.37
2019-05-03T23:00:55.076Z,12.10
2019-05-03T23:03:27.527Z,16.37
2019-05-03T23:06:01.759Z,15.67
2019-05-03T23:08:35.761Z,14.17
2019-05-03T23:14:19.817Z,12.43
2019-05-03T23:17:25.544Z,15.63
2019-05-03T23:20:18.439Z,16.73
2019-05-03T23:22:51.121Z,12.20
2019-05-03T23:25:26.049Z,13.70
2019-05-03T23:27:57.271Z,13.47
2019-05-03T23:30:33.237Z,14.97
2019-05-03T23:33:03.767Z,17.57
2019-05-03T23:35:35.008Z,16.97
2019-05-03T23:38:11.474Z,18.37
2019-05-03T23:40:41.506Z,14.37
2019-05-03T23:43:31.979Z,18.07
2019-05-03T23:46:25.280Z,16.30
2019-05-03T23:48:59.457Z,13.20
2019-05-03T23:51:49.235Z,17.60
2019-05-03T23:54:27.243Z,14.87
2019-05-03T23:57:01.476Z,14.97
